Artic, Indiana
Current Conditions -  °F | °C
As of 5:55 PM on Thursday 27 Nov 2014 (Local Time) from KGWB Reporting Station
Light Snow Light Snow  
Wind Chill: 20°   Ceiling: 2000
Heat Index: 30°   Visibility: 7mi
Dew Point: 23°   Wind: 14mph
Humidity: 75%   Direction: 280°W
Pressure: 30.28"   Gusts: 20mph
Location:  41.4294°N, 84.8751°W
Report Text: KGWB 272255Z AUTO 28012G17KT 7SM -SN SCT013 BKN020 OVC070 M01/M05 A3028 RMK AO2
Loading
Personal Weather Stations






























Interactive Weather Map New forecast layout! Learn more

10-Day Weather Forecast

Advertisements
Track Severe Weather on mobile